sensor_id;sensor_type;location;lat;lon;timestamp;temperature;humidity
37446;DHT22;23307;51.136;14.942;2023-05-21T00:02:16;17.10;99.90
37446;DHT22;23307;51.136;14.942;2023-05-21T00:04:43;17.00;99.90
37446;DHT22;23307;51.136;14.942;2023-05-21T00:07:09;17.00;99.90
37446;DHT22;23307;51.136;14.942;2023-05-21T00:09:36;17.00;99.90
37446;DHT22;23307;51.136;14.942;2023-05-21T00:12:08;17.00;99.90
37446;DHT22;23307;51.136;14.942;2023-05-21T00:14:34;17.00;99.90
37446;DHT22;23307;51.136;14.942;2023-05-21T00:17:00;17.00;99.90
37446;DHT22;23307;51.136;14.942;2023-05-21T00:19:25;16.90;99.90
37446;DHT22;23307;51.136;14.942;2023-05-21T00:21:51;16.90;99.90
37446;DHT22;23307;51.136;14.942;2023-05-21T00:24:17;16.90;99.90
37446;DHT22;23307;51.136;14.942;2023-05-21T00:26:42;16.90;99.90
37446;DHT22;23307;51.136;14.942;2023-05-21T00:29:08;16.90;99.90
37446;DHT22;23307;51.136;14.942;2023-05-21T00:31:33;16.80;99.90
37446;DHT22;23307;51.136;14.942;2023-05-21T00:33:59;16.80;99.90
37446;DHT22;23307;51.136;14.942;2023-05-21T00:36:25;16.80;99.90
37446;DHT22;23307;51.136;14.942;2023-05-21T00:38:51;16.80;99.90
37446;DHT22;23307;51.136;14.942;2023-05-21T00:41:17;16.80;99.90
37446;DHT22;23307;51.136;14.942;2023-05-21T00:43:43;16.80;99.90
37446;DHT22;23307;51.136;14.942;2023-05-21T00:46:13;16.80;99.90
37446;DHT22;23307;51.136;14.942;2023-05-21T00:48:41;16.70;99.90
37446;DHT22;23307;51.136;14.942;2023-05-21T00:51:07;16.70;99.90
37446;DHT22;23307;51.136;14.942;2023-05-21T00:53:33;16.70;99.90
37446;DHT22;23307;51.136;14.942;2023-05-21T00:56:00;16.70;99.90
37446;DHT22;23307;51.136;14.942;2023-05-21T00:58:26;16.70;99.90
37446;DHT22;23307;51.136;14.942;2023-05-21T01:00:52;16.70;99.90
37446;DHT22;23307;51.136;14.942;2023-05-21T01:03:21;16.70;99.90
37446;DHT22;23307;51.136;14.942;2023-05-21T01:05:49;16.60;99.90
37446;DHT22;23307;51.136;14.942;2023-05-21T01:08:15;16.60;99.90
37446;DHT22;23307;51.136;14.942;2023-05-21T01:10:40;16.50;99.90
37446;DHT22;23307;51.136;14.942;2023-05-21T01:13:06;16.50;99.90
37446;DHT22;23307;51.136;14.942;2023-05-21T01:15:32;16.50;99.90
37446;DHT22;23307;51.136;14.942;2023-05-21T01:17:58;16.50;99.90
37446;DHT22;23307;51.136;14.942;2023-05-21T01:20:24;16.50;99.90
37446;DHT22;23307;51.136;14.942;2023-05-21T01:22:53;16.50;99.90
37446;DHT22;23307;51.136;14.942;2023-05-21T01:25:21;16.50;99.90
37446;DHT22;23307;51.136;14.942;2023-05-21T01:27:47;16.50;99.90
37446;DHT22;23307;51.136;14.942;2023-05-21T01:30:14;16.50;99.90
37446;DHT22;23307;51.136;14.942;2023-05-21T01:38:11;16.40;99.90
37446;DHT22;23307;51.136;14.942;2023-05-21T01:40:46;16.40;99.90
37446;DHT22;23307;51.136;14.942;2023-05-21T01:43:13;16.30;99.90
37446;DHT22;23307;51.136;14.942;2023-05-21T01:45:41;16.30;99.90
37446;DHT22;23307;51.136;14.942;2023-05-21T01:48:08;16.30;99.90
37446;DHT22;23307;51.136;14.942;2023-05-21T01:50:36;16.30;99.90
37446;DHT22;23307;51.136;14.942;2023-05-21T01:53:02;16.20;99.90
37446;DHT22;23307;51.136;14.942;2023-05-21T01:55:30;16.20;99.90
37446;DHT22;23307;51.136;14.942;2023-05-21T01:57:57;16.20;99.90
37446;DHT22;23307;51.136;14.942;2023-05-21T02:00:25;16.20;99.90
37446;DHT22;23307;51.136;14.942;2023-05-21T02:02:53;16.20;99.90
37446;DHT22;23307;51.136;14.942;2023-05-21T02:05:19;16.20;99.90
37446;DHT22;23307;51.136;14.942;2023-05-21T02:07:45;16.20;99.90
37446;DHT22;23307;51.136;14.942;2023-05-21T02:10:11;16.20;99.90
37446;DHT22;23307;51.136;14.942;2023-05-21T02:12:37;16.20;99.90
37446;DHT22;23307;51.136;14.942;2023-05-21T02:15:03;16.20;99.90
37446;DHT22;23307;51.136;14.942;2023-05-21T02:17:28;16.20;99.90
37446;DHT22;23307;51.136;14.942;2023-05-21T02:19:58;16.20;99.90
37446;DHT22;23307;51.136;14.942;2023-05-21T02:22:31;16.20;99.90
37446;DHT22;23307;51.136;14.942;2023-05-21T02:24:56;16.10;99.90
37446;DHT22;23307;51.136;14.942;2023-05-21T02:27:23;16.10;99.90
37446;DHT22;23307;51.136;14.942;2023-05-21T02:29:48;16.10;99.90
37446;DHT22;23307;51.136;14.942;2023-05-21T02:32:14;16.10;99.90
37446;DHT22;23307;51.136;14.942;2023-05-21T02:34:41;16.10;99.90
37446;DHT22;23307;51.136;14.942;2023-05-21T02:37:07;16.10;99.90
37446;DHT22;23307;51.136;14.942;2023-05-21T02:39:33;16.00;99.90
37446;DHT22;23307;51.136;14.942;2023-05-21T02:41:59;16.00;99.90
37446;DHT22;23307;51.136;14.942;2023-05-21T02:44:24;16.00;99.90
37446;DHT22;23307;51.136;14.942;2023-05-21T02:46:50;16.00;99.90
37446;DHT22;23307;51.136;14.942;2023-05-21T02:49:15;15.90;99.90
37446;DHT22;23307;51.136;14.942;2023-05-21T02:51:41;15.90;99.90
37446;DHT22;23307;51.136;14.942;2023-05-21T02:54:06;15.90;99.90
37446;DHT22;23307;51.136;14.942;2023-05-21T02:56:32;15.90;99.90
37446;DHT22;23307;51.136;14.942;2023-05-21T02:58:57;15.80;99.90
37446;DHT22;23307;51.136;14.942;2023-05-21T03:01:23;15.80;99.90
37446;DHT22;23307;51.136;14.942;2023-05-21T03:03:48;15.80;99.90
37446;DHT22;23307;51.136;14.942;2023-05-21T03:06:14;15.80;99.90
37446;DHT22;23307;51.136;14.942;2023-05-21T03:08:40;15.80;99.90
37446;DHT22;23307;51.136;14.942;2023-05-21T03:11:06;15.80;99.90
37446;DHT22;23307;51.136;14.942;2023-05-21T03:13:31;15.80;99.90
37446;DHT22;23307;51.136;14.942;2023-05-21T03:15:57;15.80;99.90
37446;DHT22;23307;51.136;14.942;2023-05-21T03:18:22;15.80;99.90
37446;DHT22;23307;51.136;14.942;2023-05-21T03:20:48;15.80;99.90
37446;DHT22;23307;51.136;14.942;2023-05-21T03:23:14;15.80;99.90
37446;DHT22;23307;51.136;14.942;2023-05-21T03:25:40;15.80;99.90
37446;DHT22;23307;51.136;14.942;2023-05-21T03:28:05;15.80;99.90
37446;DHT22;23307;51.136;14.942;2023-05-21T03:30:31;15.80;99.90
37446;DHT22;23307;51.136;14.942;2023-05-21T03:32:57;15.80;99.90
37446;DHT22;23307;51.136;14.942;2023-05-21T03:35:24;15.90;99.90
37446;DHT22;23307;51.136;14.942;2023-05-21T03:37:49;15.90;99.90
37446;DHT22;23307;51.136;14.942;2023-05-21T03:40:15;15.90;99.90
37446;DHT22;23307;51.136;14.942;2023-05-21T03:42:40;15.90;99.90
37446;DHT22;23307;51.136;14.942;2023-05-21T03:45:06;15.90;99.90
37446;DHT22;23307;51.136;14.942;2023-05-21T03:47:32;16.00;99.90
37446;DHT22;23307;51.136;14.942;2023-05-21T03:49:58;16.00;99.90
37446;DHT22;23307;51.136;14.942;2023-05-21T03:52:23;16.00;99.90
37446;DHT22;23307;51.136;14.942;2023-05-21T03:54:49;16.10;99.90
37446;DHT22;23307;51.136;14.942;2023-05-21T03:57:14;16.10;99.90
37446;DHT22;23307;51.136;14.942;2023-05-21T03:59:40;16.10;99.90
37446;DHT22;23307;51.136;14.942;2023-05-21T04:02:05;16.10;99.90
37446;DHT22;23307;51.136;14.942;2023-05-21T04:04:45;16.20;99.90
37446;DHT22;23307;51.136;14.942;2023-05-21T04:07:11;16.20;99.90
37446;DHT22;23307;51.136;14.942;2023-05-21T04:09:40;16.20;99.90
37446;DHT22;23307;51.136;14.942;2023-05-21T04:12:06;16.20;99.90
37446;DHT22;23307;51.136;14.942;2023-05-21T04:14:32;16.20;99.90
37446;DHT22;23307;51.136;14.942;2023-05-21T04:16:58;16.20;99.90
37446;DHT22;23307;51.136;14.942;2023-05-21T04:19:24;16.30;99.90
37446;DHT22;23307;51.136;14.942;2023-05-21T04:21:49;16.30;99.90
37446;DHT22;23307;51.136;14.942;2023-05-21T04:24:15;16.30;99.90
37446;DHT22;23307;51.136;14.942;2023-05-21T04:26:40;16.30;99.90
37446;DHT22;23307;51.136;14.942;2023-05-21T04:29:07;16.30;99.90
37446;DHT22;23307;51.136;14.942;2023-05-21T04:31:32;16.40;99.90
37446;DHT22;23307;51.136;14.942;2023-05-21T04:33:58;16.40;99.90
37446;DHT22;23307;51.136;14.942;2023-05-21T04:36:23;16.40;99.90
37446;DHT22;23307;51.136;14.942;2023-05-21T04:38:49;16.30;99.90
37446;DHT22;23307;51.136;14.942;2023-05-21T04:41:15;16.40;99.90
37446;DHT22;23307;51.136;14.942;2023-05-21T04:43:43;16.40;99.90
37446;DHT22;23307;51.136;14.942;2023-05-21T04:46:08;16.40;99.90
37446;DHT22;23307;51.136;14.942;2023-05-21T04:48:34;16.40;99.90
37446;DHT22;23307;51.136;14.942;2023-05-21T04:50:59;16.40;99.90
37446;DHT22;23307;51.136;14.942;2023-05-21T04:53:25;16.50;99.90
37446;DHT22;23307;51.136;14.942;2023-05-21T04:55:50;16.50;99.90
37446;DHT22;23307;51.136;14.942;2023-05-21T04:58:16;16.60;99.90
37446;DHT22;23307;51.136;14.942;2023-05-21T05:00:43;16.60;99.90
37446;DHT22;23307;51.136;14.942;2023-05-21T05:03:11;16.70;99.90
37446;DHT22;23307;51.136;14.942;2023-05-21T05:05:37;16.70;99.90
37446;DHT22;23307;51.136;14.942;2023-05-21T05:08:02;16.70;99.90
37446;DHT22;23307;51.136;14.942;2023-05-21T05:10:28;16.80;99.90
37446;DHT22;23307;51.136;14.942;2023-05-21T05:12:54;16.80;99.90
37446;DHT22;23307;51.136;14.942;2023-05-21T05:15:19;16.80;99.90
37446;DHT22;23307;51.136;14.942;2023-05-21T05:17:45;16.90;99.90
37446;DHT22;23307;51.136;14.942;2023-05-21T05:20:12;16.90;99.90
37446;DHT22;23307;51.136;14.942;2023-05-21T05:22:38;17.00;99.90
37446;DHT22;23307;51.136;14.942;2023-05-21T05:25:04;17.00;99.90
37446;DHT22;23307;51.136;14.942;2023-05-21T05:27:30;17.10;99.90
37446;DHT22;23307;51.136;14.942;2023-05-21T05:29:55;17.10;99.90
37446;DHT22;23307;51.136;14.942;2023-05-21T05:32:21;17.10;99.90
37446;DHT22;23307;51.136;14.942;2023-05-21T05:34:46;17.20;99.90
37446;DHT22;23307;51.136;14.942;2023-05-21T05:37:12;17.30;99.90
37446;DHT22;23307;51.136;14.942;2023-05-21T05:39:37;17.30;99.90
37446;DHT22;23307;51.136;14.942;2023-05-21T05:42:03;17.30;99.90
37446;DHT22;23307;51.136;14.942;2023-05-21T05:44:28;17.40;99.90
37446;DHT22;23307;51.136;14.942;2023-05-21T05:46:54;17.40;99.90
37446;DHT22;23307;51.136;14.942;2023-05-21T05:49:20;17.50;99.90
37446;DHT22;23307;51.136;14.942;2023-05-21T05:51:45;17.40;99.90
37446;DHT22;23307;51.136;14.942;2023-05-21T05:54:11;17.50;99.90
37446;DHT22;23307;51.136;14.942;2023-05-21T05:56:36;17.50;99.90
37446;DHT22;23307;51.136;14.942;2023-05-21T05:59:02;17.50;99.90
37446;DHT22;23307;51.136;14.942;2023-05-21T06:01:27;17.60;99.90
37446;DHT22;23307;51.136;14.942;2023-05-21T06:03:53;17.60;99.90
37446;DHT22;23307;51.136;14.942;2023-05-21T06:06:18;17.60;99.90
37446;DHT22;23307;51.136;14.942;2023-05-21T06:08:44;17.70;99.90
37446;DHT22;23307;51.136;14.942;2023-05-21T06:11:10;17.80;99.90
37446;DHT22;23307;51.136;14.942;2023-05-21T06:13:36;17.90;99.90
37446;DHT22;23307;51.136;14.942;2023-05-21T06:16:02;17.90;99.90
37446;DHT22;23307;51.136;14.942;2023-05-21T06:18:28;18.10;99.90
37446;DHT22;23307;51.136;14.942;2023-05-21T06:20:53;18.10;99.90
37446;DHT22;23307;51.136;14.942;2023-05-21T06:23:19;18.30;99.90
37446;DHT22;23307;51.136;14.942;2023-05-21T06:25:44;18.40;99.90
37446;DHT22;23307;51.136;14.942;2023-05-21T06:28:10;18.40;99.90
37446;DHT22;23307;51.136;14.942;2023-05-21T06:30:35;18.50;99.90
37446;DHT22;23307;51.136;14.942;2023-05-21T06:33:01;18.60;99.90
37446;DHT22;23307;51.136;14.942;2023-05-21T06:35:26;18.60;99.90
37446;DHT22;23307;51.136;14.942;2023-05-21T06:37:52;18.70;99.90
37446;DHT22;23307;51.136;14.942;2023-05-21T06:40:17;18.80;99.90
37446;DHT22;23307;51.136;14.942;2023-05-21T06:42:43;18.80;99.90
37446;DHT22;23307;51.136;14.942;2023-05-21T06:45:08;18.80;99.90
37446;DHT22;23307;51.136;14.942;2023-05-21T06:47:34;18.90;99.90
37446;DHT22;23307;51.136;14.942;2023-05-21T06:50:00;19.00;99.90
37446;DHT22;23307;51.136;14.942;2023-05-21T06:52:25;19.00;99.90
37446;DHT22;23307;51.136;14.942;2023-05-21T06:54:51;19.20;99.90
37446;DHT22;23307;51.136;14.942;2023-05-21T06:57:17;19.20;99.90
37446;DHT22;23307;51.136;14.942;2023-05-21T06:59:42;19.20;99.90
37446;DHT22;23307;51.136;14.942;2023-05-21T07:02:08;19.30;99.90
37446;DHT22;23307;51.136;14.942;2023-05-21T07:04:34;19.50;99.90
37446;DHT22;23307;51.136;14.942;2023-05-21T07:07:00;19.60;99.90
37446;DHT22;23307;51.136;14.942;2023-05-21T07:09:26;19.70;99.90
37446;DHT22;23307;51.136;14.942;2023-05-21T07:11:51;19.80;99.90
37446;DHT22;23307;51.136;14.942;2023-05-21T07:14:17;19.80;99.90
37446;DHT22;23307;51.136;14.942;2023-05-21T07:16:43;19.90;99.90
37446;DHT22;23307;51.136;14.942;2023-05-21T07:19:08;20.10;99.90
37446;DHT22;23307;51.136;14.942;2023-05-21T07:21:34;20.20;99.90
37446;DHT22;23307;51.136;14.942;2023-05-21T07:24:00;20.20;99.90
37446;DHT22;23307;51.136;14.942;2023-05-21T07:26:25;20.30;99.90
37446;DHT22;23307;51.136;14.942;2023-05-21T07:28:51;20.40;99.90
37446;DHT22;23307;51.136;14.942;2023-05-21T07:31:16;20.50;99.90
37446;DHT22;23307;51.136;14.942;2023-05-21T07:33:42;20.60;99.90
37446;DHT22;23307;51.136;14.942;2023-05-21T07:36:07;20.70;99.90
37446;DHT22;23307;51.136;14.942;2023-05-21T07:38:33;20.80;99.90
37446;DHT22;23307;51.136;14.942;2023-05-21T07:40:58;20.90;99.90
37446;DHT22;23307;51.136;14.942;2023-05-21T07:43:24;21.00;99.90
37446;DHT22;23307;51.136;14.942;2023-05-21T07:45:49;21.10;99.90
37446;DHT22;23307;51.136;14.942;2023-05-21T07:48:15;21.20;99.90
37446;DHT22;23307;51.136;14.942;2023-05-21T07:50:41;21.20;99.90
37446;DHT22;23307;51.136;14.942;2023-05-21T07:53:06;21.30;99.90
37446;DHT22;23307;51.136;14.942;2023-05-21T07:55:31;21.40;99.90
37446;DHT22;23307;51.136;14.942;2023-05-21T07:57:57;21.50;99.90
37446;DHT22;23307;51.136;14.942;2023-05-21T08:00:23;21.60;99.90
37446;DHT22;23307;51.136;14.942;2023-05-21T08:02:49;21.70;99.90
37446;DHT22;23307;51.136;14.942;2023-05-21T08:05:16;21.80;99.90
37446;DHT22;23307;51.136;14.942;2023-05-21T08:07:41;21.80;99.90
37446;DHT22;23307;51.136;14.942;2023-05-21T08:10:07;21.90;99.90
37446;DHT22;23307;51.136;14.942;2023-05-21T08:12:33;22.00;99.90
37446;DHT22;23307;51.136;14.942;2023-05-21T08:14:58;22.10;99.90
37446;DHT22;23307;51.136;14.942;2023-05-21T08:17:24;22.20;99.90
37446;DHT22;23307;51.136;14.942;2023-05-21T08:19:50;22.50;99.90
37446;DHT22;23307;51.136;14.942;2023-05-21T08:22:15;22.60;99.90
37446;DHT22;23307;51.136;14.942;2023-05-21T08:24:41;22.70;99.90
37446;DHT22;23307;51.136;14.942;2023-05-21T08:27:06;22.80;99.90
37446;DHT22;23307;51.136;14.942;2023-05-21T08:29:32;23.00;99.90
37446;DHT22;23307;51.136;14.942;2023-05-21T08:31:58;23.10;99.90
37446;DHT22;23307;51.136;14.942;2023-05-21T08:34:23;23.30;99.90
37446;DHT22;23307;51.136;14.942;2023-05-21T08:36:49;23.30;99.90
37446;DHT22;23307;51.136;14.942;2023-05-21T08:39:15;23.50;99.90
37446;DHT22;23307;51.136;14.942;2023-05-21T08:41:41;23.60;99.90
37446;DHT22;23307;51.136;14.942;2023-05-21T08:44:13;23.80;99.90
37446;DHT22;23307;51.136;14.942;2023-05-21T08:46:39;24.00;99.90
37446;DHT22;23307;51.136;14.942;2023-05-21T08:49:11;24.10;99.90
37446;DHT22;23307;51.136;14.942;2023-05-21T08:51:37;24.20;99.90
37446;DHT22;23307;51.136;14.942;2023-05-21T08:54:06;24.10;99.90
37446;DHT22;23307;51.136;14.942;2023-05-21T08:56:33;24.10;99.90
37446;DHT22;23307;51.136;14.942;2023-05-21T08:58:59;24.10;99.90
37446;DHT22;23307;51.136;14.942;2023-05-21T09:01:25;24.00;99.90
37446;DHT22;23307;51.136;14.942;2023-05-21T09:03:52;24.10;99.90
37446;DHT22;23307;51.136;14.942;2023-05-21T09:06:20;24.00;99.90
37446;DHT22;23307;51.136;14.942;2023-05-21T09:08:59;24.00;99.90
37446;DHT22;23307;51.136;14.942;2023-05-21T09:11:28;24.10;99.90
37446;DHT22;23307;51.136;14.942;2023-05-21T09:13:54;24.20;99.90
37446;DHT22;23307;51.136;14.942;2023-05-21T09:16:21;24.40;99.90
37446;DHT22;23307;51.136;14.942;2023-05-21T09:18:47;24.50;99.90
37446;DHT22;23307;51.136;14.942;2023-05-21T09:21:27;24.70;99.90
37446;DHT22;23307;51.136;14.942;2023-05-21T09:23:54;24.90;99.90
37446;DHT22;23307;51.136;14.942;2023-05-21T09:26:21;24.90;99.90
37446;DHT22;23307;51.136;14.942;2023-05-21T09:28:47;25.00;99.90
37446;DHT22;23307;51.136;14.942;2023-05-21T09:31:13;25.20;99.90
37446;DHT22;23307;51.136;14.942;2023-05-21T09:33:45;25.20;99.90
37446;DHT22;23307;51.136;14.942;2023-05-21T09:36:11;25.30;99.90
37446;DHT22;23307;51.136;14.942;2023-05-21T09:38:37;25.30;99.90
37446;DHT22;23307;51.136;14.942;2023-05-21T09:41:05;25.40;99.90
37446;DHT22;23307;51.136;14.942;2023-05-21T09:43:31;25.40;99.90
37446;DHT22;23307;51.136;14.942;2023-05-21T09:45:58;25.50;99.90
37446;DHT22;23307;51.136;14.942;2023-05-21T09:48:37;25.60;99.90
37446;DHT22;23307;51.136;14.942;2023-05-21T09:51:14;25.70;99.90
37446;DHT22;23307;51.136;14.942;2023-05-21T09:53:53;25.60;99.90
37446;DHT22;23307;51.136;14.942;2023-05-21T09:56:21;25.40;99.90
37446;DHT22;23307;51.136;14.942;2023-05-21T09:58:47;25.40;99.90
37446;DHT22;23307;51.136;14.942;2023-05-21T10:01:13;25.30;99.90
37446;DHT22;23307;51.136;14.942;2023-05-21T10:03:39;25.30;99.90
37446;DHT22;23307;51.136;14.942;2023-05-21T10:06:07;25.40;99.90
37446;DHT22;23307;51.136;14.942;2023-05-21T10:08:35;25.40;99.90
37446;DHT22;23307;51.136;14.942;2023-05-21T10:11:04;25.40;99.90
37446;DHT22;23307;51.136;14.942;2023-05-21T10:13:30;25.40;99.90
37446;DHT22;23307;51.136;14.942;2023-05-21T10:16:01;25.40;99.90
37446;DHT22;23307;51.136;14.942;2023-05-21T10:18:31;25.40;99.90
37446;DHT22;23307;51.136;14.942;2023-05-21T10:20:58;25.60;99.90
37446;DHT22;23307;51.136;14.942;2023-05-21T10:23:26;25.80;99.90
37446;DHT22;23307;51.136;14.942;2023-05-21T10:25:54;25.90;99.90
37446;DHT22;23307;51.136;14.942;2023-05-21T10:28:21;26.00;99.90
37446;DHT22;23307;51.136;14.942;2023-05-21T10:30:48;26.00;99.90
37446;DHT22;23307;51.136;14.942;2023-05-21T10:33:17;26.00;99.90
37446;DHT22;23307;51.136;14.942;2023-05-21T10:35:44;26.00;99.90
37446;DHT22;23307;51.136;14.942;2023-05-21T10:38:10;25.90;99.90
37446;DHT22;23307;51.136;14.942;2023-05-21T10:40:37;26.00;99.90
37446;DHT22;23307;51.136;14.942;2023-05-21T10:49:04;26.00;99.90
37446;DHT22;23307;51.136;14.942;2023-05-21T10:54:40;26.10;99.90
37446;DHT22;23307;51.136;14.942;2023-05-21T10:59:57;26.10;99.90
37446;DHT22;23307;51.136;14.942;2023-05-21T11:02:25;26.00;99.90
37446;DHT22;23307;51.136;14.942;2023-05-21T11:04:57;26.00;99.90
37446;DHT22;23307;51.136;14.942;2023-05-21T11:07:50;26.10;99.90
37446;DHT22;23307;51.136;14.942;2023-05-21T11:10:36;26.00;99.90
37446;DHT22;23307;51.136;14.942;2023-05-21T11:13:12;26.20;99.90
37446;DHT22;23307;51.136;14.942;2023-05-21T11:19:13;26.40;99.90
37446;DHT22;23307;51.136;14.942;2023-05-21T11:21:12;26.50;99.90
37446;DHT22;23307;51.136;14.942;2023-05-21T11:28:42;26.30;99.90
37446;DHT22;23307;51.136;14.942;2023-05-21T11:31:25;26.30;99.90
37446;DHT22;23307;51.136;14.942;2023-05-21T11:36:37;25.60;99.90
37446;DHT22;23307;51.136;14.942;2023-05-21T11:39:13;25.30;99.90
37446;DHT22;23307;51.136;14.942;2023-05-21T11:42:08;25.00;99.90
37446;DHT22;23307;51.136;14.942;2023-05-21T11:47:07;24.90;99.90
37446;DHT22;23307;51.136;14.942;2023-05-21T11:49:34;24.60;99.90
37446;DHT22;23307;51.136;14.942;2023-05-21T11:52:01;24.60;99.90
37446;DHT22;23307;51.136;14.942;2023-05-21T11:54:27;24.50;99.90
37446;DHT22;23307;51.136;14.942;2023-05-21T11:57:01;24.40;99.90
37446;DHT22;23307;51.136;14.942;2023-05-21T11:59:27;24.60;99.90
37446;DHT22;23307;51.136;14.942;2023-05-21T12:01:53;24.60;99.90
37446;DHT22;23307;51.136;14.942;2023-05-21T12:04:19;24.70;99.90
37446;DHT22;23307;51.136;14.942;2023-05-21T12:06:45;24.70;99.90
37446;DHT22;23307;51.136;14.942;2023-05-21T12:09:12;24.60;99.90
37446;DHT22;23307;51.136;14.942;2023-05-21T12:11:39;24.60;99.90
37446;DHT22;23307;51.136;14.942;2023-05-21T12:14:11;24.50;99.90
37446;DHT22;23307;51.136;14.942;2023-05-21T12:16:38;24.50;99.90
37446;DHT22;23307;51.136;14.942;2023-05-21T12:19:05;24.60;99.90
37446;DHT22;23307;51.136;14.942;2023-05-21T12:21:31;24.70;99.90
37446;DHT22;23307;51.136;14.942;2023-05-21T12:23:56;24.80;99.90
37446;DHT22;23307;51.136;14.942;2023-05-21T12:26:23;24.90;99.90
37446;DHT22;23307;51.136;14.942;2023-05-21T12:28:55;24.90;99.90
37446;DHT22;23307;51.136;14.942;2023-05-21T12:31:21;25.00;99.90
37446;DHT22;23307;51.136;14.942;2023-05-21T12:33:50;25.00;99.90
37446;DHT22;23307;51.136;14.942;2023-05-21T12:36:25;25.00;99.90
37446;DHT22;23307;51.136;14.942;2023-05-21T12:38:52;25.10;99.90
37446;DHT22;23307;51.136;14.942;2023-05-21T12:41:18;24.90;99.90
37446;DHT22;23307;51.136;14.942;2023-05-21T12:43:44;25.00;99.90
37446;DHT22;23307;51.136;14.942;2023-05-21T12:46:11;25.00;99.90
37446;DHT22;23307;51.136;14.942;2023-05-21T12:48:39;25.00;99.90
37446;DHT22;23307;51.136;14.942;2023-05-21T12:51:05;24.90;99.90
37446;DHT22;23307;51.136;14.942;2023-05-21T12:53:37;24.70;99.90
37446;DHT22;23307;51.136;14.942;2023-05-21T12:56:10;24.60;99.90
37446;DHT22;23307;51.136;14.942;2023-05-21T12:58:36;24.50;99.90
37446;DHT22;23307;51.136;14.942;2023-05-21T13:01:05;24.50;99.90
37446;DHT22;23307;51.136;14.942;2023-05-21T13:03:31;24.40;99.90
37446;DHT22;23307;51.136;14.942;2023-05-21T13:05:58;24.50;99.90
37446;DHT22;23307;51.136;14.942;2023-05-21T13:08:24;24.60;99.90
37446;DHT22;23307;51.136;14.942;2023-05-21T13:10:49;24.60;99.90
37446;DHT22;23307;51.136;14.942;2023-05-21T13:13:15;24.60;99.90
37446;DHT22;23307;51.136;14.942;2023-05-21T13:15:40;24.50;99.90
37446;DHT22;23307;51.136;14.942;2023-05-21T13:18:06;24.60;99.90
37446;DHT22;23307;51.136;14.942;2023-05-21T13:20:31;24.50;99.90
37446;DHT22;23307;51.136;14.942;2023-05-21T13:22:57;24.30;99.90
37446;DHT22;23307;51.136;14.942;2023-05-21T13:25:24;24.20;99.90
37446;DHT22;23307;51.136;14.942;2023-05-21T13:27:53;24.10;99.90
37446;DHT22;23307;51.136;14.942;2023-05-21T13:30:19;23.90;99.90
37446;DHT22;23307;51.136;14.942;2023-05-21T13:32:45;23.80;99.90
37446;DHT22;23307;51.136;14.942;2023-05-21T13:35:11;23.60;99.90
37446;DHT22;23307;51.136;14.942;2023-05-21T13:37:39;23.30;99.90
37446;DHT22;23307;51.136;14.942;2023-05-21T13:40:06;23.10;99.90
37446;DHT22;23307;51.136;14.942;2023-05-21T13:42:33;22.90;99.90
37446;DHT22;23307;51.136;14.942;2023-05-21T13:44:59;22.90;99.90
37446;DHT22;23307;51.136;14.942;2023-05-21T13:47:25;22.90;99.90
37446;DHT22;23307;51.136;14.942;2023-05-21T13:49:51;22.90;99.90
37446;DHT22;23307;51.136;14.942;2023-05-21T13:52:16;22.90;99.90
37446;DHT22;23307;51.136;14.942;2023-05-21T13:54:42;22.90;99.90
37446;DHT22;23307;51.136;14.942;2023-05-21T13:57:08;22.90;99.90
37446;DHT22;23307;51.136;14.942;2023-05-21T13:59:34;22.90;99.90
37446;DHT22;23307;51.136;14.942;2023-05-21T14:01:59;22.80;99.90
37446;DHT22;23307;51.136;14.942;2023-05-21T14:04:25;22.70;99.90
37446;DHT22;23307;51.136;14.942;2023-05-21T14:06:50;22.70;99.90
37446;DHT22;23307;51.136;14.942;2023-05-21T14:09:16;22.70;99.90
37446;DHT22;23307;51.136;14.942;2023-05-21T14:11:42;22.60;99.90
37446;DHT22;23307;51.136;14.942;2023-05-21T14:14:08;22.60;99.90
37446;DHT22;23307;51.136;14.942;2023-05-21T14:16:33;22.70;99.90
37446;DHT22;23307;51.136;14.942;2023-05-21T14:18:59;22.80;99.90
37446;DHT22;23307;51.136;14.942;2023-05-21T14:21:25;22.80;99.90
37446;DHT22;23307;51.136;14.942;2023-05-21T14:23:51;22.80;99.90
37446;DHT22;23307;51.136;14.942;2023-05-21T14:26:17;22.80;99.90
37446;DHT22;23307;51.136;14.942;2023-05-21T14:28:43;22.70;99.90
37446;DHT22;23307;51.136;14.942;2023-05-21T14:31:09;22.60;99.90
37446;DHT22;23307;51.136;14.942;2023-05-21T14:33:36;22.30;99.90
37446;DHT22;23307;51.136;14.942;2023-05-21T14:36:02;22.20;99.90
37446;DHT22;23307;51.136;14.942;2023-05-21T14:38:28;22.00;99.90
37446;DHT22;23307;51.136;14.942;2023-05-21T14:40:54;21.90;99.90
37446;DHT22;23307;51.136;14.942;2023-05-21T14:43:19;21.80;99.90
37446;DHT22;23307;51.136;14.942;2023-05-21T14:45:45;21.70;99.90
37446;DHT22;23307;51.136;14.942;2023-05-21T14:48:11;21.60;99.90
37446;DHT22;23307;51.136;14.942;2023-05-21T14:50:37;21.60;99.90
37446;DHT22;23307;51.136;14.942;2023-05-21T14:53:04;21.60;99.90
37446;DHT22;23307;51.136;14.942;2023-05-21T14:55:30;21.60;99.90
37446;DHT22;23307;51.136;14.942;2023-05-21T14:57:57;21.70;99.90
37446;DHT22;23307;51.136;14.942;2023-05-21T15:00:24;21.70;99.90
37446;DHT22;23307;51.136;14.942;2023-05-21T15:02:50;21.60;99.90
37446;DHT22;23307;51.136;14.942;2023-05-21T15:05:16;21.60;99.90
37446;DHT22;23307;51.136;14.942;2023-05-21T15:07:41;21.70;99.90
37446;DHT22;23307;51.136;14.942;2023-05-21T15:10:07;21.60;99.90
37446;DHT22;23307;51.136;14.942;2023-05-21T15:12:33;21.60;99.90
37446;DHT22;23307;51.136;14.942;2023-05-21T15:14:58;21.70;99.90
37446;DHT22;23307;51.136;14.942;2023-05-21T15:17:24;21.70;99.90
37446;DHT22;23307;51.136;14.942;2023-05-21T15:19:49;21.70;99.90
37446;DHT22;23307;51.136;14.942;2023-05-21T15:22:15;21.80;99.90
37446;DHT22;23307;51.136;14.942;2023-05-21T15:24:40;21.90;99.90
37446;DHT22;23307;51.136;14.942;2023-05-21T15:27:07;22.00;99.90
37446;DHT22;23307;51.136;14.942;2023-05-21T15:29:33;22.10;99.90
37446;DHT22;23307;51.136;14.942;2023-05-21T15:31:58;22.20;99.90
37446;DHT22;23307;51.136;14.942;2023-05-21T15:34:25;22.30;99.90
37446;DHT22;23307;51.136;14.942;2023-05-21T15:36:50;22.30;99.90
37446;DHT22;23307;51.136;14.942;2023-05-21T15:39:16;22.40;99.90
37446;DHT22;23307;51.136;14.942;2023-05-21T15:41:42;22.40;99.90
37446;DHT22;23307;51.136;14.942;2023-05-21T15:44:08;22.40;99.90